Time;durP1;ratioP1;P1;durP2;ratioP2;P2;SDS_P1;SDS_P2;PMS_P1;PMS_P2;Temp;Humidity;BMP_temperature;BMP_pressure;BME280_temperature;BME280_humidity;BME280_pressure;Samples;Min_cycle;Max_cycle;Signal;HPM_P1;HPM_P2
2020/12/19 00:01:39;;;;;;;10.87;6.50;;;6.30;99.90;;;6.75;100.00;98422.22;4997236;28;20507;-81
2020/12/19 00:04:06;;;;;;;9.50;6.53;;;6.30;99.90;;;6.67;100.00;98424.75;5007644;28;20811;-82
2020/12/19 00:06:34;;;;;;;10.87;6.20;;;6.20;99.90;;;6.67;100.00;98414.38;4999049;28;20467;-82
2020/12/19 00:09:01;;;;;;;10.23;6.07;;;6.30;99.90;;;6.52;100.00;98407.16;4997681;28;20473;-82
2020/12/19 00:11:29;;;;;;;11.93;7.40;;;6.10;99.90;;;6.52;100.00;98412.38;4996639;28;20471;-82
2020/12/19 00:13:57;;;;;;;16.40;7.60;;;6.10;99.90;;;6.51;100.00;98415.91;4997421;28;20805;-82
2020/12/19 00:16:29;;;;;;;9.60;6.17;;;6.00;99.90;;;6.50;100.00;98416.06;4996449;28;20490;-82
2020/12/19 00:18:57;;;;;;;13.60;7.10;;;6.10;99.90;;;6.46;100.00;98407.75;4996171;28;20962;-82
2020/12/19 00:21:31;;;;;;;12.73;6.50;;;6.00;99.90;;;6.47;100.00;98403.38;4995125;28;20602;-82
2020/12/19 00:24:00;;;;;;;15.97;7.73;;;6.00;99.90;;;6.47;100.00;98398.19;4993833;28;20485;-81
2020/12/19 00:26:35;;;;;;;13.40;6.97;;;6.10;99.90;;;6.44;100.00;98399.31;4995515;28;20459;-82
2020/12/19 00:29:04;;;;;;;11.03;7.43;;;6.00;99.90;;;6.41;100.00;98402.22;4995452;28;20491;-82
2020/12/19 00:31:35;;;;;;;15.67;7.27;;;5.90;99.90;;;6.43;100.00;98395.06;4992596;28;20462;-81
2020/12/19 00:34:03;;;;;;;12.23;7.10;;;5.90;99.90;;;6.46;100.00;98407.75;4995638;28;20479;-82
2020/12/19 00:36:32;;;;;;;11.53;6.77;;;5.90;99.90;;;6.49;100.00;98399.66;4994209;28;20573;-82
2020/12/19 00:39:00;;;;;;;14.00;8.00;;;5.90;99.90;;;6.48;100.00;98402.41;4994735;28;21003;-81
2020/12/19 00:41:28;;;;;;;14.13;7.23;;;5.80;99.90;;;6.52;100.00;98407.16;4994680;28;20942;-81
2020/12/19 00:43:56;;;;;;;12.10;7.40;;;5.80;99.90;;;6.51;100.00;98404.72;4992817;28;20478;-81
2020/12/19 00:46:25;;;;;;;13.60;7.20;;;5.80;99.90;;;6.55;100.00;98395.66;4994087;28;20466;-82
2020/12/19 00:48:54;;;;;;;12.73;7.03;;;5.80;99.90;;;6.53;100.00;98388.00;4994686;28;20936;-82
2020/12/19 00:51:23;;;;;;;13.10;6.73;;;5.90;99.90;;;6.52;100.00;98390.75;4994478;28;21003;-82
2020/12/19 00:53:52;;;;;;;11.23;6.73;;;5.90;99.90;;;6.44;100.00;98393.28;4995619;28;20518;-82
2020/12/19 00:56:21;;;;;;;10.70;6.30;;;5.80;99.90;;;6.38;100.00;98392.13;4996128;28;20470;-81
2020/12/19 00:58:51;;;;;;;14.67;6.60;;;5.70;99.90;;;6.36;100.00;98375.88;4995979;28;20451;-81
2020/12/19 01:01:22;;;;;;;11.80;7.10;;;5.70;99.90;;;6.40;100.00;98373.78;4995020;28;20490;-82
2020/12/19 01:03:52;;;;;;;12.60;7.27;;;5.70;99.90;;;6.44;100.00;98375.94;4994562;28;20463;-82
2020/12/19 01:06:22;;;;;;;14.63;7.30;;;5.80;99.90;;;6.44;100.00;98375.13;4994480;28;20847;-81
2020/12/19 01:08:52;;;;;;;18.53;6.87;;;5.80;99.90;;;6.44;100.00;98378.53;4994568;28;20478;-81
2020/12/19 01:11:35;;;;;;;12.57;7.70;;;5.80;99.90;;;6.45;100.00;98363.75;4995179;28;20470;-81
2020/12/19 01:14:04;;;;;;;12.57;6.97;;;5.80;99.90;;;6.46;100.00;98371.38;4994142;28;20460;-82
2020/12/19 01:16:33;;;;;;;18.30;8.20;;;5.70;99.90;;;6.48;100.00;98366.06;4993972;28;20464;-82
2020/12/19 01:19:04;;;;;;;13.90;7.63;;;5.80;99.90;;;6.49;100.00;98365.88;4993746;28;20491;-81
2020/12/19 01:21:34;;;;;;;13.30;7.53;;;5.70;99.90;;;6.46;100.00;98363.59;4995862;28;20499;-82
2020/12/19 01:24:01;;;;;;;14.10;7.47;;;5.80;99.90;;;6.43;100.00;98363.91;4992085;28;20464;-82
2020/12/19 01:26:29;;;;;;;13.00;7.20;;;5.70;99.90;;;6.40;100.00;98361.63;4993847;28;21024;-82
2020/12/19 01:28:57;;;;;;;14.00;7.63;;;5.80;99.90;;;6.41;100.00;98363.25;4994132;28;20496;-82
2020/12/19 01:31:27;;;;;;;11.30;6.93;;;5.80;99.90;;;6.41;100.00;98362.44;4994938;28;21209;-81
2020/12/19 01:33:54;;;;;;;8.30;5.50;;;5.80;99.90;;;6.40;100.00;98366.81;4994619;28;20578;-82
2020/12/19 01:36:24;;;;;;;10.63;6.57;;;5.80;99.90;;;6.38;100.00;98357.56;4993455;28;20464;-81
2020/12/19 01:38:53;;;;;;;13.20;7.63;;;5.80;99.90;;;6.35;100.00;98366.44;4995883;28;20472;-82
2020/12/19 01:41:22;;;;;;;12.83;6.93;;;5.70;99.90;;;6.37;100.00;98361.94;4994723;28;20495;-82
2020/12/19 01:43:52;;;;;;;10.57;7.00;;;5.90;99.90;;;6.27;100.00;98358.63;4993278;28;20831;-81
2020/12/19 01:46:41;;;;;;;11.60;6.80;;;5.70;99.90;;;6.28;100.00;98362.81;4994838;28;20459;-81
2020/12/19 01:49:10;;;;;;;10.93;6.30;;;5.60;99.90;;;6.31;100.00;98351.34;4994065;28;20526;-82
2020/12/19 01:51:38;;;;;;;12.57;6.30;;;5.70;99.90;;;6.30;100.00;98347.91;4995494;28;21027;-81
2020/12/19 01:54:08;;;;;;;9.37;6.13;;;5.70;99.90;;;6.31;100.00;98346.16;4994903;28;20764;-82
2020/12/19 01:56:52;;;;;;;12.63;6.30;;;5.80;99.90;;;6.32;100.00;98340.78;4992364;28;20583;-82
2020/12/19 01:59:22;;;;;;;11.50;5.93;;;5.80;99.90;;;6.30;100.00;98334.94;4998352;28;20941;-82
2020/12/19 02:01:52;;;;;;;13.10;6.83;;;5.70;99.90;;;6.32;100.00;98338.19;4998487;28;20525;-82
2020/12/19 02:04:21;;;;;;;11.17;6.37;;;5.70;99.90;;;6.30;100.00;98336.72;4998400;28;20502;-82
2020/12/19 02:06:53;;;;;;;12.40;7.10;;;5.60;99.90;;;6.31;100.00;98339.19;4997487;28;21064;-82
2020/12/19 02:09:26;;;;;;;10.60;6.70;;;5.80;99.90;;;6.29;100.00;98341.09;4996533;28;20530;-82
2020/12/19 02:11:53;;;;;;;10.77;6.23;;;5.80;99.90;;;6.29;100.00;98338.50;4998541;28;20475;-82
2020/12/19 02:14:21;;;;;;;15.57;7.20;;;5.80;99.90;;;6.30;100.00;98328.94;4997627;28;20509;-82
2020/12/19 02:16:57;;;;;;;7.63;5.70;;;5.80;99.90;;;6.26;100.00;98333.59;4997969;28;20501;-81
2020/12/19 02:19:26;;;;;;;10.87;6.70;;;5.70;99.90;;;6.28;100.00;98331.66;4997875;28;20479;-82
2020/12/19 02:21:54;;;;;;;9.90;6.03;;;5.70;99.90;;;6.30;100.00;98334.13;4998954;28;20885;-82
2020/12/19 02:24:24;;;;;;;9.37;5.70;;;5.80;99.90;;;6.25;100.00;98324.19;4997444;28;20463;-82
2020/12/19 02:26:54;;;;;;;7.60;5.00;;;5.80;99.90;;;6.27;100.00;98319.66;4998239;28;20459;-82
2020/12/19 02:29:24;;;;;;;9.53;5.73;;;5.80;99.90;;;6.27;100.00;98330.06;4998818;28;21219;-82
2020/12/19 02:31:53;;;;;;;7.87;5.17;;;5.70;99.90;;;6.28;100.00;98323.88;4996256;28;20460;-81
2020/12/19 02:34:21;;;;;;;8.93;4.90;;;5.90;99.90;;;6.26;100.00;98322.41;4996471;28;20498;-82
2020/12/19 02:36:48;;;;;;;9.57;6.00;;;5.70;99.90;;;6.28;100.00;98320.50;4996054;28;20495;-81
2020/12/19 02:39:16;;;;;;;8.73;5.97;;;5.70;99.90;;;6.25;100.00;98324.19;4998538;28;20447;-81
2020/12/19 02:41:48;;;;;;;9.57;6.20;;;5.80;99.90;;;6.21;100.00;98325.47;4998719;28;20493;-81
2020/12/19 02:44:18;;;;;;;8.40;5.87;;;5.70;99.90;;;6.22;100.00;98321.91;4996501;28;20459;-82
2020/12/19 02:46:46;;;;;;;7.53;5.00;;;5.70;99.90;;;6.20;100.00;98323.03;4994944;28;20858;-81
2020/12/19 02:49:14;;;;;;;9.63;5.10;;;5.70;99.90;;;6.21;100.00;98325.47;4997182;28;20456;-81
2020/12/19 02:51:42;;;;;;;8.17;5.37;;;5.70;99.90;;;6.20;100.00;98318.66;4996344;28;20525;-82
2020/12/19 02:54:10;;;;;;;9.13;5.77;;;5.70;99.90;;;6.16;100.00;98312.13;4998365;28;21211;-82
2020/12/19 02:56:38;;;;;;;9.47;5.93;;;5.70;99.90;;;6.17;100.00;98315.53;4997683;28;20467;-81
2020/12/19 02:59:07;;;;;;;9.03;5.57;;;5.60;99.90;;;6.18;100.00;98304.19;4996775;28;21003;-82
2020/12/19 03:01:34;;;;;;;7.70;5.00;;;5.70;99.90;;;6.17;100.00;98312.94;4997106;28;20499;-82
2020/12/19 03:04:02;;;;;;;7.80;5.07;;;5.70;99.90;;;6.16;100.00;98306.13;4998122;28;20452;-81
2020/12/19 03:06:33;;;;;;;9.80;5.10;;;5.60;99.90;;;6.12;100.00;98305.59;4995969;28;20854;-82
2020/12/19 03:09:01;;;;;;;9.93;5.00;;;5.50;99.90;;;6.12;100.00;98304.78;4996748;28;20469;-81
2020/12/19 03:11:28;;;;;;;8.67;5.73;;;5.60;99.90;;;6.15;100.00;98302.69;4996977;28;20444;-81
2020/12/19 03:13:56;;;;;;;8.47;5.43;;;5.60;99.90;;;6.11;100.00;98303.97;4997781;28;20466;-81
2020/12/19 03:16:24;;;;;;;9.37;6.00;;;5.50;99.90;;;6.13;100.00;98299.47;4997347;28;20460;-81
2020/12/19 03:18:52;;;;;;;9.63;5.60;;;5.60;99.90;;;6.13;100.00;98301.22;4997099;28;20573;-81
2020/12/19 03:21:20;;;;;;;7.37;5.07;;;5.50;99.90;;;6.11;100.00;98296.19;4995330;28;20490;-81
2020/12/19 03:23:48;;;;;;;8.17;4.90;;;5.40;99.90;;;6.14;100.00;98295.91;4996283;28;20956;-81
2020/12/19 03:26:15;;;;;;;7.97;5.10;;;5.50;99.90;;;6.15;100.00;98294.91;4996230;28;20493;-81
2020/12/19 03:28:43;;;;;;;10.93;5.00;;;5.50;99.90;;;6.15;100.00;98292.31;4995213;28;20503;-81
2020/12/19 03:31:10;;;;;;;9.53;5.07;;;5.50;99.90;;;6.10;100.00;98296.34;4996086;28;20475;-81
2020/12/19 03:33:39;;;;;;;8.83;5.40;;;5.40;99.90;;;6.13;100.00;98296.88;4997859;28;20953;-81
2020/12/19 03:36:08;;;;;;;7.17;4.80;;;5.40;99.90;;;6.16;100.00;98283.56;4994805;28;20462;-81
2020/12/19 03:38:35;;;;;;;7.33;5.20;;;5.50;99.90;;;6.10;100.00;98286.78;4995781;28;20562;-82
2020/12/19 03:41:03;;;;;;;8.37;5.40;;;5.40;99.90;;;6.11;100.00;98288.38;4996206;28;20817;-81
2020/12/19 03:43:31;;;;;;;8.10;5.70;;;5.40;99.90;;;6.12;100.00;98292.63;4997786;28;20463;-82
2020/12/19 03:45:58;;;;;;;8.07;5.13;;;5.50;99.90;;;6.07;100.00;98287.09;4997367;28;20463;-81
2020/12/19 03:48:26;;;;;;;9.30;5.67;;;5.40;99.90;;;6.13;100.00;98291.66;4997401;28;20549;-82
2020/12/19 03:50:55;;;;;;;9.03;5.17;;;5.50;99.90;;;6.09;100.00;98290.34;4995800;28;20503;-82
2020/12/19 03:53:22;;;;;;;7.47;5.33;;;5.50;99.90;;;6.07;100.00;98281.91;4996275;28;20466;-81
2020/12/19 03:55:50;;;;;;;7.30;5.07;;;5.60;99.90;;;6.07;100.00;98292.28;4997164;28;20493;-81
2020/12/19 03:58:18;;;;;;;6.83;5.07;;;5.60;99.90;;;6.02;100.00;98284.13;4995681;28;20474;-81
2020/12/19 04:00:46;;;;;;;8.13;5.03;;;5.60;99.90;;;5.91;100.00;98287.78;4996720;28;20878;-82
2020/12/19 04:03:13;;;;;;;7.83;5.33;;;5.40;99.90;;;5.95;100.00;98288.28;4995728;28;20460;-82
2020/12/19 04:05:41;;;;;;;7.63;5.13;;;5.50;99.90;;;5.96;100.00;98284.75;4997718;28;21012;-81
2020/12/19 04:08:09;;;;;;;9.07;5.90;;;5.50;99.90;;;5.92;100.00;98289.44;4994239;28;20522;-81
2020/12/19 04:10:37;;;;;;;9.90;5.90;;;5.50;99.90;;;5.91;100.00;98280.00;4996949;28;20976;-82
2020/12/19 04:13:07;;;;;;;7.60;5.00;;;5.50;99.90;;;5.92;100.00;98281.63;4994666;28;20471;-81
2020/12/19 04:15:35;;;;;;;11.57;5.50;;;5.50;99.90;;;5.90;100.00;98280.16;4995718;28;20965;-82
2020/12/19 04:18:02;;;;;;;8.60;5.40;;;5.50;99.90;;;5.88;100.00;98282.09;4995513;28;21074;-81
2020/12/19 04:20:30;;;;;;;9.57;5.07;;;5.50;99.90;;;5.90;100.00;98277.56;4995339;28;20490;-81
2020/12/19 04:22:57;;;;;;;8.13;5.43;;;5.40;99.90;;;5.89;100.00;98275.94;4994653;28;20468;-81
2020/12/19 04:25:25;;;;;;;16.90;5.93;;;5.40;99.90;;;5.88;100.00;98279.50;4996072;28;20558;-82
2020/12/19 04:27:53;;;;;;;15.03;6.53;;;5.50;99.90;;;5.88;100.00;98287.28;4993864;28;21037;-81
2020/12/19 04:30:21;;;;;;;11.27;5.83;;;5.50;99.90;;;5.86;100.00;98273.66;4995578;28;20470;-81
2020/12/19 04:32:48;;;;;;;6.87;5.03;;;5.40;99.90;;;5.85;100.00;98269.38;4996331;28;20964;-82
2020/12/19 04:35:16;;;;;;;9.00;5.40;;;5.40;99.90;;;5.86;100.00;98273.66;4994618;28;20447;-81
2020/12/19 04:37:44;;;;;;;10.90;6.43;;;5.40;99.90;;;5.81;100.00;98266.28;4996235;28;20870;-82
2020/12/19 04:40:11;;;;;;;10.80;5.87;;;5.40;99.90;;;5.79;100.00;98270.00;4995142;28;20463;-82
2020/12/19 04:42:43;;;;;;;9.53;6.00;;;5.30;99.90;;;5.78;100.00;98270.97;4995864;28;20478;-82
2020/12/19 04:45:11;;;;;;;18.60;6.17;;;5.30;99.90;;;5.75;100.00;98266.88;4996049;28;20484;-81
2020/12/19 04:47:38;;;;;;;9.60;5.60;;;5.30;99.90;;;5.78;100.00;98270.97;4994225;28;20560;-81
2020/12/19 04:50:06;;;;;;;9.43;6.17;;;5.30;99.90;;;5.71;100.00;98264.75;4993571;28;20471;-81
2020/12/19 04:52:34;;;;;;;12.17;6.83;;;5.30;99.90;;;5.73;100.00;98267.97;4994234;28;20514;-86
2020/12/19 04:55:02;;;;;;;10.50;5.87;;;5.30;99.90;;;5.74;100.00;98267.84;4995330;28;20968;-81
2020/12/19 04:57:30;;;;;;;8.33;5.40;;;5.30;99.90;;;5.76;100.00;98267.72;4995086;28;20463;-81
2020/12/19 04:59:58;;;;;;;10.33;5.50;;;5.30;99.90;;;5.75;100.00;98276.44;4996635;28;20452;-81
2020/12/19 05:02:25;;;;;;;14.50;6.10;;;5.30;99.90;;;5.72;100.00;98280.16;4997908;28;20529;-81
2020/12/19 05:04:53;;;;;;;12.80;6.50;;;5.20;99.90;;;5.71;100.00;98275.94;4994424;28;20448;-81
2020/12/19 05:07:38;;;;;;;10.87;6.10;;;5.20;99.90;;;5.72;100.00;98271.56;4992952;28;20456;-81
2020/12/19 05:10:06;;;;;;;10.57;6.50;;;5.30;99.90;;;5.73;100.00;98267.97;4996830;28;20967;-81
2020/12/19 05:12:34;;;;;;;8.20;5.30;;;5.30;99.90;;;5.72;100.00;98268.97;4996702;28;20829;-81
2020/12/19 05:15:06;;;;;;;10.03;5.90;;;5.30;99.90;;;5.70;100.00;98276.88;4993976;28;20558;-86
2020/12/19 05:17:34;;;;;;;11.03;6.47;;;5.20;99.90;;;5.70;100.00;98258.72;4994953;28;20483;-81
2020/12/19 05:20:03;;;;;;;10.17;6.20;;;5.30;99.90;;;5.70;100.00;98263.09;4995003;28;20502;-82
2020/12/19 05:22:34;;;;;;;12.00;6.50;;;5.30;99.90;;;5.68;100.00;98259.84;4997245;28;20491;-81
2020/12/19 05:25:03;;;;;;;11.30;6.30;;;5.20;99.90;;;5.60;100.00;98252.81;4998290;28;20979;-81
2020/12/19 05:27:32;;;;;;;11.70;6.00;;;5.10;99.90;;;5.56;100.00;98256.69;4996976;28;20446;-82
2020/12/19 05:29:59;;;;;;;10.63;5.63;;;5.00;99.90;;;5.61;100.00;98256.22;4996923;28;20923;-82
2020/12/19 05:32:36;;;;;;;10.53;6.27;;;5.00;99.90;;;5.64;100.00;98258.53;4996024;28;20502;-81
2020/12/19 05:35:07;;;;;;;11.20;6.10;;;5.10;99.90;;;5.71;100.00;98265.56;5000734;28;20451;-81
2020/12/19 05:37:34;;;;;;;7.77;5.03;;;5.10;99.90;;;5.70;100.00;98257.91;5001730;28;20478;-81
2020/12/19 05:40:11;;;;;;;9.93;5.67;;;5.10;99.90;;;5.69;100.00;98256.31;5000213;28;20483;-81
2020/12/19 05:42:40;;;;;;;9.17;5.87;;;5.00;99.90;;;5.70;100.00;98257.91;5001050;28;21044;-81
2020/12/19 05:45:16;;;;;;;9.17;5.57;;;5.20;99.90;;;5.68;100.00;98254.66;5002375;28;20855;-81
2020/12/19 05:47:46;;;;;;;8.33;5.37;;;5.10;99.90;;;5.72;100.00;98261.19;5002691;28;20458;-81
2020/12/19 05:50:15;;;;;;;10.10;5.73;;;5.10;99.90;;;5.72;100.00;98261.19;5001380;28;20455;-81
2020/12/19 05:52:43;;;;;;;8.87;4.50;;;5.00;99.90;;;5.72;100.00;98266.38;5002228;28;20457;-81
2020/12/19 05:55:12;;;;;;;7.60;4.93;;;5.10;99.90;;;5.72;100.00;98261.19;5001518;28;20446;-81
2020/12/19 05:57:41;;;;;;;7.60;5.40;;;5.10;99.90;;;5.75;100.00;98272.09;4999962;28;20448;-81
2020/12/19 06:00:12;;;;;;;8.37;5.40;;;5.20;99.90;;;5.73;100.00;98263.63;5001108;28;20442;-81
2020/12/19 06:02:40;;;;;;;9.90;5.50;;;5.10;99.90;;;5.68;100.00;98275.41;5000178;28;21311;-81
2020/12/19 06:05:10;;;;;;;9.20;5.00;;;5.00;99.90;;;5.70;100.00;98273.47;5000585;28;20528;-81
2020/12/19 06:07:42;;;;;;;11.03;5.77;;;5.00;99.90;;;5.65;100.00;98262.75;5000740;28;20444;-81
2020/12/19 06:10:13;;;;;;;9.53;5.60;;;4.90;99.90;;;5.62;100.00;98268.25;5002176;28;20518;-81
2020/12/19 06:13:02;;;;;;;9.30;5.30;;;4.90;99.90;;;5.61;100.00;98267.44;5001485;28;20863;-82
2020/12/19 06:15:55;;;;;;;10.70;6.00;;;4.90;99.90;;;5.67;100.00;98273.78;5000279;28;21002;-81
2020/12/19 06:18:45;;;;;;;11.13;6.13;;;4.90;99.90;;;5.67;100.00;98279.78;5000397;28;20584;-82
2020/12/19 06:21:14;;;;;;;9.67;6.17;;;5.00;99.90;;;5.67;100.00;98279.78;5001038;28;20495;-82
2020/12/19 06:23:43;;;;;;;9.20;6.00;;;5.10;99.90;;;5.68;100.00;98280.59;5001050;28;20505;-81
2020/12/19 06:26:13;;;;;;;8.00;4.90;;;5.10;99.90;;;5.71;100.00;98280.31;5002032;28;20451;-81
2020/12/19 06:28:50;;;;;;;10.97;5.43;;;5.10;99.90;;;5.67;100.00;98272.00;5000039;28;20510;-81
2020/12/19 06:31:21;;;;;;;10.03;6.00;;;5.10;99.90;;;5.67;100.00;98274.59;5000223;28;20934;-81
2020/12/19 06:33:52;;;;;;;9.47;5.63;;;5.10;99.90;;;5.62;100.00;98266.47;5001316;28;20455;-81
2020/12/19 06:36:24;;;;;;;8.77;5.67;;;5.00;99.90;;;5.62;100.00;98282.03;5000924;28;20460;-81
2020/12/19 06:38:55;;;;;;;9.10;5.00;;;5.00;99.90;;;5.65;100.00;98273.94;4999459;28;20447;-81
2020/12/19 06:41:48;;;;;;;6.53;4.77;;;5.00;99.90;;;5.71;100.00;98278.53;4999882;28;20531;-81
2020/12/19 06:44:23;;;;;;;8.97;5.27;;;5.00;99.90;;;5.66;100.00;98282.56;5000175;28;20462;-82
2020/12/19 06:46:52;;;;;;;8.53;5.50;;;5.00;99.90;;;5.60;100.00;98281.34;5000109;28;20964;-81
2020/12/19 06:49:36;;;;;;;7.20;5.30;;;5.00;99.90;;;5.58;100.00;98281.53;5000373;28;20448;-81
2020/12/19 06:52:09;;;;;;;5.90;4.87;;;5.00;99.90;;;5.59;100.00;98277.94;5000021;28;20479;-81
2020/12/19 06:54:39;;;;;;;12.60;5.10;;;5.00;99.90;;;5.57;100.00;98279.88;5000718;28;20459;-81
2020/12/19 06:57:22;;;;;;;12.73;4.83;;;5.00;99.90;;;5.56;100.00;98278.25;5000333;28;20455;-81
2020/12/19 06:59:50;;;;;;;7.30;5.00;;;5.00;99.90;;;5.52;100.00;98276.91;4999986;28;20452;-81
2020/12/19 07:02:21;;;;;;;11.20;5.60;;;5.00;99.90;;;5.53;100.00;98269.94;4998296;28;20487;-81
2020/12/19 07:04:49;;;;;;;10.30;5.60;;;5.00;99.90;;;5.49;100.00;98273.78;4999876;28;20819;-81
2020/12/19 07:07:26;;;;;;;7.17;4.53;;;4.90;99.90;;;5.50;100.00;98273.66;4998754;28;20558;-81
2020/12/19 07:09:58;;;;;;;9.20;5.57;;;4.90;99.90;;;5.51;100.00;98270.13;5000112;28;20775;-81
2020/12/19 07:12:35;;;;;;;11.03;5.30;;;4.90;99.90;;;5.51;100.00;98272.72;4999951;28;20460;-81
2020/12/19 07:15:05;;;;;;;10.43;4.67;;;5.00;99.90;;;5.48;100.00;98270.38;5000074;28;20793;-81
2020/12/19 07:17:46;;;;;;;10.73;4.40;;;5.00;99.90;;;5.52;100.00;98273.50;4997960;28;20448;-81
2020/12/19 07:20:20;;;;;;;6.03;4.00;;;5.00;99.90;;;5.46;100.00;98268.91;5001146;28;21073;-82
2020/12/19 07:22:50;;;;;;;8.50;5.60;;;5.00;99.90;;;5.45;100.00;98269.88;4999417;28;20495;-81
2020/12/19 07:25:18;;;;;;;12.40;4.57;;;5.00;99.90;;;5.38;100.00;98276.66;4998749;28;20873;-81
2020/12/19 07:27:46;;;;;;;9.23;4.43;;;4.80;99.90;;;5.46;100.00;98277.50;4998995;28;20455;-81
2020/12/19 07:30:14;;;;;;;5.77;4.13;;;4.90;99.90;;;5.41;100.00;98284.94;5001090;28;20900;-81
2020/12/19 07:32:44;;;;;;;11.03;4.53;;;4.90;99.90;;;5.25;100.00;98289.94;4999421;28;20448;-81
2020/12/19 07:35:12;;;;;;;36.13;5.27;;;4.60;99.90;;;5.11;100.00;98290.47;4999776;28;20474;-81
2020/12/19 07:37:40;;;;;;;12.60;4.63;;;4.40;99.90;;;5.10;100.00;98293.22;5000371;28;21006;-81
2020/12/19 07:40:09;;;;;;;22.27;4.90;;;4.30;99.90;;;5.16;100.00;98295.22;5000236;28;20455;-81
2020/12/19 07:42:37;;;;;;;20.13;4.57;;;4.40;99.90;;;5.16;100.00;98295.22;4999406;28;20490;-81
2020/12/19 07:45:05;;;;;;;8.20;4.33;;;4.40;99.90;;;5.22;100.00;98300.63;5000942;28;20455;-81
2020/12/19 07:47:34;;;;;;;10.70;4.77;;;4.60;99.90;;;5.23;100.00;98302.25;5000521;28;20455;-81
2020/12/19 07:50:01;;;;;;;11.50;5.10;;;4.60;99.90;;;5.25;100.00;98315.88;4997976;28;20463;-81
2020/12/19 07:52:29;;;;;;;10.17;4.83;;;4.60;99.90;;;5.27;100.00;98315.75;5000902;28;20458;-81
2020/12/19 07:54:59;;;;;;;11.87;4.93;;;4.70;99.90;;;5.28;100.00;98312.16;4999137;28;20967;-81
2020/12/19 07:57:30;;;;;;;11.67;5.30;;;4.70;99.90;;;5.28;100.00;98310.41;4998409;28;20456;-81
2020/12/19 07:59:58;;;;;;;10.10;5.17;;;4.60;99.90;;;5.25;100.00;98315.88;5000690;28;20451;-81
2020/12/19 08:02:26;;;;;;;20.33;5.50;;;4.50;99.90;;;5.26;100.00;98320.09;4999314;28;21186;-81
2020/12/19 08:04:57;;;;;;;17.20;5.53;;;4.70;99.90;;;5.25;100.00;98313.28;4998701;28;20808;-81
2020/12/19 08:07:26;;;;;;;9.27;5.20;;;4.70;99.90;;;5.27;100.00;98324.34;4997171;28;20440;-81
2020/12/19 08:10:03;;;;;;;9.07;5.00;;;4.80;99.90;;;5.24;100.00;98314.25;4999646;28;20887;-81
2020/12/19 08:12:32;;;;;;;12.67;4.57;;;4.80;99.90;;;5.23;100.00;98309.22;4998324;28;20443;-81
2020/12/19 08:15:05;;;;;;;9.43;5.33;;;4.70;99.90;;;5.28;100.00;98312.16;4998280;28;21348;-81
2020/12/19 08:17:45;;;;;;;10.20;6.17;;;4.70;99.90;;;5.28;100.00;98305.22;4998791;28;20943;-81
2020/12/19 08:20:17;;;;;;;8.93;4.43;;;4.80;99.90;;;5.27;100.00;98305.38;4999146;28;20903;-81
2020/12/19 08:22:45;;;;;;;7.37;4.67;;;4.80;99.90;;;5.28;100.00;98310.41;4998390;28;20491;-81
2020/12/19 08:25:14;;;;;;;9.00;4.90;;;4.80;99.90;;;5.28;100.00;98310.41;4999584;28;20459;-81
2020/12/19 08:27:46;;;;;;;16.23;4.47;;;4.90;99.90;;;5.29;100.00;98304.25;4997960;28;20432;-81
2020/12/19 08:30:31;;;;;;;11.30;5.03;;;4.90;99.90;;;5.27;100.00;98303.59;4996890;28;20547;-81
2020/12/19 08:33:03;;;;;;;6.10;4.27;;;4.90;99.90;;;5.27;100.00;98303.59;4998379;28;20448;-81
2020/12/19 08:35:34;;;;;;;9.33;4.20;;;4.80;99.90;;;5.31;100.00;98302.31;4997811;28;20948;-81
2020/12/19 08:38:08;;;;;;;13.60;4.60;;;4.80;99.90;;;5.35;100.00;98311.44;4998974;28;20464;-81
2020/12/19 08:40:40;;;;;;;23.20;4.10;;;4.90;99.90;;;5.30;100.00;98311.09;4999190;28;20844;-83
2020/12/19 08:43:11;;;;;;;15.90;4.83;;;4.90;99.90;;;5.29;100.00;98312.03;4999417;28;20498;-81
2020/12/19 08:45:40;;;;;;;16.93;4.50;;;5.00;99.90;;;5.23;100.00;98312.63;4999016;28;20443;-81
2020/12/19 08:48:10;;;;;;;20.63;4.90;;;4.90;99.90;;;5.19;100.00;98305.28;4999199;28;20440;-81
2020/12/19 08:50:40;;;;;;;11.93;4.77;;;4.80;99.90;;;5.16;100.00;98305.56;4997809;28;20442;-81
2020/12/19 08:53:21;;;;;;;7.13;4.50;;;4.80;99.90;;;5.20;100.00;98301.75;4996320;28;20479;-81
2020/12/19 08:55:49;;;;;;;15.03;5.00;;;4.70;99.90;;;5.22;100.00;98316.19;4997476;28;20460;-81
2020/12/19 08:58:23;;;;;;;5.80;4.70;;;4.80;99.90;;;5.24;100.00;98313.44;4997333;28;20470;-81
2020/12/19 09:00:52;;;;;;;8.93;4.33;;;4.70;99.90;;;5.23;100.00;98312.63;4998779;28;20448;-81
2020/12/19 09:03:29;;;;;;;8.90;4.77;;;4.70;99.90;;;5.25;100.00;98315.06;4998814;28;20456;-81
2020/12/19 09:06:05;;;;;;;8.37;5.10;;;4.70;99.90;;;5.29;100.00;98319.81;4996853;28;20459;-81
2020/12/19 09:08:36;;;;;;;14.93;5.10;;;4.80;99.90;;;5.28;100.00;98322.53;4998110;28;20435;-81
2020/12/19 09:11:06;;;;;;;6.63;4.63;;;4.80;99.90;;;5.30;100.00;98325.81;5002301;28;20455;-81
2020/12/19 09:13:36;;;;;;;5.60;4.30;;;4.80;99.90;;;5.32;100.00;98324.69;5001841;28;20479;-81
2020/12/19 09:16:09;;;;;;;6.33;4.37;;;4.90;99.90;;;5.32;100.00;98331.66;5001609;28;20541;-81
2020/12/19 09:18:39;;;;;;;6.00;4.50;;;4.80;99.90;;;5.34;100.00;98330.56;5002302;28;20533;-82
2020/12/19 09:21:09;;;;;;;7.60;4.67;;;4.90;99.90;;;5.35;100.00;98332.19;5000820;28;20949;-81
2020/12/19 09:23:38;;;;;;;11.07;5.70;;;4.90;99.90;;;5.27;100.00;98333.88;5001622;28;20537;-81
2020/12/19 09:26:07;;;;;;;13.13;4.90;;;4.60;99.90;;;5.20;100.00;98343.22;5000634;28;20448;-81
2020/12/19 09:28:35;;;;;;;7.43;4.00;;;4.50;99.90;;;5.08;100.00;98334.81;4999819;28;20475;-81
2020/12/19 09:31:03;;;;;;;9.30;4.30;;;4.30;99.90;;;5.13;100.00;98332.63;5001793;28;20455;-81
2020/12/19 09:33:31;;;;;;;5.87;4.60;;;4.40;99.90;;;5.18;100.00;98330.38;5001335;28;20467;-81
2020/12/19 09:35:58;;;;;;;7.53;4.80;;;4.40;99.90;;;5.24;100.00;98329.78;5000155;28;20854;-81
2020/12/19 09:38:26;;;;;;;5.33;4.10;;;4.50;99.90;;;5.31;100.00;98333.44;5000722;28;20446;-81
2020/12/19 09:40:53;;;;;;;8.73;5.37;;;4.70;99.90;;;5.36;100.00;98328.63;5000848;28;20443;-81
2020/12/19 09:43:21;;;;;;;6.17;4.63;;;4.80;99.90;;;5.39;100.00;98322.31;4999872;28;20492;-81
2020/12/19 09:45:49;;;;;;;22.77;5.17;;;4.90;99.90;;;5.33;100.00;98323.75;5000573;28;20440;-81
2020/12/19 09:48:17;;;;;;;12.67;4.50;;;4.80;99.90;;;5.30;100.00;98331.81;5000900;28;20447;-81
2020/12/19 09:50:44;;;;;;;8.00;4.70;;;4.60;99.90;;;5.24;100.00;98329.00;4999881;28;20444;-81
2020/12/19 09:53:12;;;;;;;13.53;4.60;;;4.50;99.90;;;5.32;100.00;98324.69;5000511;28;20449;-81
2020/12/19 09:55:40;;;;;;;8.40;5.30;;;4.60;99.90;;;5.37;100.00;98325.09;5001287;28;20439;-81
2020/12/19 09:58:07;;;;;;;6.07;4.43;;;4.70;99.90;;;5.33;100.00;98328.13;4999259;28;20502;-81
2020/12/19 10:00:35;;;;;;;6.20;4.13;;;4.60;99.90;;;5.27;100.00;98331.28;5000140;28;20451;-81
2020/12/19 10:03:03;;;;;;;15.87;4.50;;;4.50;99.90;;;5.24;100.00;98340.16;5000287;28;20590;-81
2020/12/19 10:05:31;;;;;;;8.07;3.97;;;4.50;99.90;;;5.08;100.00;98324.44;5000291;28;20495;-81
2020/12/19 10:07:58;;;;;;;6.00;4.20;;;4.30;99.90;;;5.13;100.00;98327.44;4999107;28;20531;-81
2020/12/19 10:10:44;;;;;;;16.23;3.73;;;4.30;99.90;;;5.16;100.00;98329.72;5001453;28;20966;-81
2020/12/19 10:13:13;;;;;;;11.90;4.90;;;4.40;99.90;;;5.14;100.00;98320.47;4999252;28;20506;-81
2020/12/19 10:15:41;;;;;;;16.20;5.00;;;4.30;99.90;;;5.16;100.00;98318.53;4999242;28;20458;-81
2020/12/19 10:18:10;;;;;;;9.03;4.90;;;4.40;99.90;;;5.15;100.00;98324.69;5001359;28;20459;-81
2020/12/19 10:20:38;;;;;;;6.33;4.20;;;4.30;99.90;;;5.18;100.00;98314.00;4999339;28;20451;-81
2020/12/19 10:23:05;;;;;;;7.20;4.60;;;4.30;99.90;;;5.26;100.00;98312.34;4999343;28;21055;-81
2020/12/19 10:25:33;;;;;;;7.30;4.37;;;4.50;99.90;;;5.38;100.00;98312.94;5000108;28;20936;-81
2020/12/19 10:28:01;;;;;;;21.67;3.80;;;4.70;99.90;;;5.44;100.00;98305.38;4999436;28;20502;-81
2020/12/19 10:30:28;;;;;;;8.20;4.10;;;4.80;99.90;;;5.43;100.00;98303.75;4998737;28;20479;-81
2020/12/19 10:32:56;;;;;;;6.87;4.30;;;4.80;99.90;;;5.47;100.00;98305.09;4999530;28;20478;-81
2020/12/19 10:35:24;;;;;;;13.50;4.03;;;4.90;99.90;;;5.49;100.00;98305.72;4999210;28;20458;-81